Time;durP1;ratioP1;P1;durP2;ratioP2;P2;SDS_P1;SDS_P2;PMS_P1;PMS_P2;Temp;Humidity;BMP_temperature;BMP_pressure;BME280_temperature;BME280_humidity;BME280_pressure;Samples;Min_cycle;Max_cycle;Signal;HPM_P1;HPM_P2
2021/12/26 00:00:49;;;;;;;105.72;53.60;;;;;;;1.04;70.75;99791.31;5070879;28;20103;-21
2021/12/26 00:03:15;;;;;;;109.50;56.83;;;;;;;1.57;70.32;99816.28;5070791;28;20059;-21
2021/12/26 00:05:40;;;;;;;107.88;54.50;;;;;;;1.57;69.74;99826.78;5070588;28;20067;-21
2021/12/26 00:08:06;;;;;;;119.40;56.28;;;;;;;0.99;71.03;99793.63;5070656;28;20036;-21
2021/12/26 00:10:31;;;;;;;115.13;58.35;;;;;;;0.75;70.95;99784.72;5052992;28;20095;-21
2021/12/26 00:12:57;;;;;;;114.75;56.85;;;;;;;1.24;70.54;99820.72;5052953;28;20576;-21
2021/12/26 00:15:23;;;;;;;117.47;55.30;;;;;;;0.95;70.87;99806.25;5070714;28;20029;-21
2021/12/26 00:17:48;;;;;;;113.80;57.40;;;;;;;0.84;73.00;99834.63;5052885;28;20047;-20
2021/12/26 00:20:14;;;;;;;121.32;58.38;;;;;;;0.87;73.10;99781.81;5070985;28;20024;-20
2021/12/26 00:22:40;;;;;;;199.98;86.03;;;;;;;0.62;74.75;99787.03;5070979;28;20024;-21
2021/12/26 00:25:06;;;;;;;96.25;49.20;;;;;;;0.46;73.37;99816.66;5036414;28;20116;-21
2021/12/26 00:27:31;;;;;;;86.75;45.92;;;;;;;0.40;72.39;99807.63;5070526;28;20072;-21
2021/12/26 00:29:57;;;;;;;80.53;43.47;;;;;;;0.34;72.63;99844.97;5069705;28;20123;-21
2021/12/26 00:32:24;;;;;;;81.82;42.70;;;;;;;0.54;71.62;99834.22;5069257;28;20488;-20
2021/12/26 00:34:51;;;;;;;72.60;40.70;;;;;;;0.60;72.54;99834.41;5069252;28;20109;-21
2021/12/26 00:37:17;;;;;;;71.40;39.38;;;;;;;0.55;72.62;99835.84;5068891;28;20473;-21
2021/12/26 00:39:42;;;;;;;68.10;36.85;;;;;;;0.56;73.22;99838.34;5068361;28;20033;-20
2021/12/26 00:42:08;;;;;;;64.05;36.05;;;;;;;0.68;72.93;99841.50;5069187;28;20064;-21
2021/12/26 00:44:38;;;;;;;63.55;35.70;;;;;;;0.49;73.06;99853.09;5068793;28;20047;-21
2021/12/26 00:47:04;;;;;;;67.25;34.95;;;;;;;0.14;74.13;99859.31;5051971;28;20028;-20
2021/12/26 00:49:30;;;;;;;80.53;41.42;;;;;;;-0.37;75.58;99861.78;5068734;28;20025;-20
2021/12/26 00:51:55;;;;;;;79.22;43.38;;;;;;;0.06;72.97;99859.25;5051185;28;20036;-20
2021/12/26 00:54:21;;;;;;;76.97;41.70;;;;;;;0.38;72.88;99851.53;5068985;28;20544;-20
2021/12/26 00:56:47;;;;;;;80.18;41.75;;;;;;;0.55;72.90;99844.56;5068833;28;20037;-22
2021/12/26 00:59:12;;;;;;;77.85;42.17;;;;;;;0.67;71.85;99839.81;5069174;28;20551;-21
2021/12/26 01:01:37;;;;;;;79.88;43.45;;;;;;;0.97;71.32;99855.97;5068587;28;20197;-21
2021/12/26 01:04:03;;;;;;;78.43;43.60;;;;;;;0.48;73.51;99832.25;5068553;28;20035;-21
2021/12/26 01:06:29;;;;;;;84.45;44.67;;;;;;;0.28;74.44;99842.97;5068528;28;20036;-21
2021/12/26 01:08:54;;;;;;;78.20;43.55;;;;;;;0.33;75.52;99806.63;5068767;28;20025;-20
2021/12/26 01:11:37;;;;;;;89.95;46.88;;;;;;;0.09;76.57;99833.56;5068448;28;20443;-21
2021/12/26 01:14:04;;;;;;;92.38;48.15;;;;;;;-0.09;78.57;99844.13;5068724;28;20404;-21
2021/12/26 01:16:30;;;;;;;102.70;51.53;;;;;;;-0.05;79.55;99837.59;5068077;28;20032;-20
2021/12/26 01:19:00;;;;;;;95.93;51.38;;;;;;;-0.09;80.96;99823.16;5050650;28;20028;-21
2021/12/26 01:21:26;;;;;;;109.40;52.38;;;;;;;0.12;80.70;99830.63;5068263;28;20033;-21
2021/12/26 01:23:57;;;;;;;102.75;51.65;;;;;;;0.43;80.01;99837.13;5068567;28;20105;-21
2021/12/26 01:26:23;;;;;;;98.03;48.50;;;;;;;0.94;77.08;99848.41;5068359;28;20036;-21
2021/12/26 01:28:49;;;;;;;97.47;49.75;;;;;;;0.92;75.73;99837.25;5000848;28;1418995;-21
2021/12/26 01:31:18;;;;;;;86.68;46.28;;;;;;;0.88;74.63;99849.06;5069350;28;20041;-21
2021/12/26 01:33:48;;;;;;;81.32;44.67;;;;;;;1.30;72.44;99853.38;5068965;28;20480;-21
2021/12/26 01:36:13;;;;;;;78.78;42.95;;;;;;;1.48;71.16;99859.31;5069190;28;20036;-21
2021/12/26 01:38:39;;;;;;;79.32;43.72;;;;;;;1.09;70.97;99857.31;5051162;28;20028;-21
2021/12/26 01:41:09;;;;;;;85.72;43.83;;;;;;;0.25;73.87;99835.44;5069147;28;20479;-21
2021/12/26 01:43:35;;;;;;;72.43;39.53;;;;;;;-0.12;74.06;99844.44;5069173;28;20025;-21
2021/12/26 01:46:01;;;;;;;67.82;36.70;;;;;;;-0.88;75.82;99831.91;5069003;28;20527;-21
2021/12/26 01:48:26;;;;;;;84.10;42.42;;;;;;;-0.68;75.23;99837.81;5068807;28;20024;-20
2021/12/26 01:50:52;;;;;;;80.82;44.58;;;;;;;-0.47;76.13;99835.69;5069018;28;20889;-21
2021/12/26 01:53:19;;;;;;;143.07;62.83;;;;;;;-0.14;75.24;99819.34;5068884;28;20029;-20
2021/12/26 01:55:46;;;;;;;100.30;50.20;;;;;;;-0.36;75.25;99802.38;5068524;28;20426;-20
2021/12/26 01:58:23;;;;;;;166.73;86.28;;;;;;;0.12;75.03;99824.56;5050481;28;20036;-21
2021/12/26 02:01:04;;;;;;;129.05;68.60;;;;;;;0.11;76.38;99828.97;5051001;28;20047;-21
2021/12/26 02:03:29;;;;;;;122.68;63.45;;;;;;;0.32;75.19;99836.44;5068516;28;20036;-20
2021/12/26 02:05:55;;;;;;;99.43;53.03;;;;;;;0.47;73.94;99812.22;5068656;28;20032;-21
2021/12/26 02:08:20;;;;;;;91.80;48.40;;;;;;;0.75;73.84;99837.22;5068561;28;20028;-20
2021/12/26 02:10:46;;;;;;;105.13;52.55;;;;;;;0.68;73.47;99807.38;5068361;28;20043;-20
2021/12/26 02:13:11;;;;;;;95.53;50.03;;;;;;;1.02;72.17;99824.78;5050529;28;20029;-21
2021/12/26 02:15:37;;;;;;;106.82;50.75;;;;;;;1.22;71.24;99838.44;5068062;28;20036;-21
2021/12/26 02:18:04;;;;;;;102.43;50.42;;;;;;;0.39;73.51;99819.09;5068382;28;20037;-21
2021/12/26 02:21:37;;;;;;;100.45;48.63;;;;;;;0.81;73.11;99835.75;5068547;28;20067;-21
2021/12/26 02:28:37;;;;;;;120.88;55.95;;;;;;;0.53;73.28;99829.94;5068154;28;20494;-20
2021/12/26 02:31:03;;;;;;;147.00;60.97;;;;;;;0.60;72.78;99817.84;5050238;28;20116;-20
2021/12/26 02:33:28;;;;;;;188.50;65.47;;;;;;;0.09;75.10;99815.22;5067804;28;20111;-21
2021/12/26 02:35:54;;;;;;;419.55;108.30;;;;;;;0.49;73.94;99820.75;5067599;28;20044;-22
2021/12/26 02:38:19;;;;;;;145.90;57.33;;;;;;;0.83;73.19;99825.94;5049695;28;20032;-21
2021/12/26 02:40:47;;;;;;;103.45;51.45;;;;;;;0.90;72.59;99831.34;5049966;28;20031;-22
2021/12/26 02:43:15;;;;;;;112.75;52.78;;;;;;;0.60;73.55;99815.22;5067871;28;20415;-21
2021/12/26 02:45:41;;;;;;;98.20;47.35;;;;;;;0.41;73.88;99826.81;5067679;28;20579;-21
2021/12/26 02:48:06;;;;;;;93.75;47.78;;;;;;;0.24;75.01;99820.66;5049849;28;20040;-21
2021/12/26 02:50:32;;;;;;;79.85;43.85;;;;;;;0.06;75.75;99804.22;5067906;28;20031;-21
2021/12/26 02:52:59;;;;;;;79.00;43.85;;;;;;;0.21;74.78;99770.38;5068013;28;20090;-21
2021/12/26 02:55:25;;;;;;;78.22;45.60;;;;;;;0.21;74.05;99797.41;5067616;28;20037;-21
2021/12/26 02:57:57;;;;;;;87.57;45.55;;;;;;;0.44;74.48;99817.81;5050114;28;20769;-21
2021/12/26 03:00:31;;;;;;;86.60;46.50;;;;;;;0.84;73.17;99824.13;5067688;28;20515;-21
2021/12/26 03:02:58;;;;;;;83.93;45.70;;;;;;;0.39;73.38;99785.00;5067896;28;20523;-20
2021/12/26 03:05:25;;;;;;;91.43;47.90;;;;;;;0.82;73.30;99815.56;5067295;28;20024;-21
2021/12/26 03:07:51;;;;;;;108.88;58.40;;;;;;;0.90;72.93;99816.44;5067367;28;20071;-21
2021/12/26 03:10:22;;;;;;;103.20;48.83;;;;;;;0.74;74.96;99819.84;5067741;28;20039;-20
2021/12/26 03:12:55;;;;;;;96.03;51.45;;;;;;;0.63;76.44;99798.31;5067754;28;20036;-21
2021/12/26 03:15:20;;;;;;;98.47;53.10;;;;;;;0.47;76.41;99796.47;5067841;28;20028;-21
2021/12/26 03:17:46;;;;;;;106.75;56.42;;;;;;;0.40;77.66;99817.28;5067355;28;20032;-20
2021/12/26 03:20:13;;;;;;;95.93;49.25;;;;;;;0.38;78.11;99819.25;5067522;28;20484;-21
2021/12/26 03:22:38;;;;;;;98.65;50.55;;;;;;;0.69;77.66;99823.94;5067527;28;20055;-20
2021/12/26 03:25:04;;;;;;;103.53;52.55;;;;;;;0.36;77.34;99816.78;5067373;28;20404;-21
2021/12/26 03:27:29;;;;;;;106.25;53.58;;;;;;;0.54;78.01;99828.97;5067372;28;20040;-21
2021/12/26 03:29:55;;;;;;;106.93;53.17;;;;;;;0.89;75.87;99833.16;5067295;28;20065;-21
2021/12/26 03:32:20;;;;;;;116.50;56.50;;;;;;;0.99;75.17;99814.63;5067443;28;20028;-21
2021/12/26 03:34:49;;;;;;;118.53;56.75;;;;;;;0.47;76.58;99830.59;5067314;28;20032;-21
2021/12/26 03:37:15;;;;;;;103.75;53.25;;;;;;;0.03;77.60;99805.34;5067449;28;20456;-21
2021/12/26 03:39:40;;;;;;;96.85;49.28;;;;;;;0.09;78.67;99830.13;5067211;28;20039;-21
2021/12/26 03:42:06;;;;;;;95.10;49.55;;;;;;;0.46;76.27;99829.78;5067363;28;20028;-21
2021/12/26 03:44:32;;;;;;;95.68;49.63;;;;;;;0.70;74.90;99818.53;5067137;28;20048;-20
2021/12/26 03:46:57;;;;;;;93.35;49.72;;;;;;;1.02;74.33;99835.28;5067162;28;20024;-21
2021/12/26 03:49:23;;;;;;;98.75;50.33;;;;;;;0.95;73.80;99826.44;5049245;28;20024;-21
2021/12/26 03:51:48;;;;;;;97.65;50.80;;;;;;;0.44;76.10;99812.56;5067476;28;20478;-21
2021/12/26 03:54:14;;;;;;;82.13;45.20;;;;;;;0.43;77.34;99834.50;5067308;28;20044;-21
2021/12/26 03:56:39;;;;;;;79.88;45.67;;;;;;;0.84;76.02;99834.63;5067290;28;20039;-20
2021/12/26 03:59:05;;;;;;;74.20;41.50;;;;;;;0.89;75.98;99832.34;5067150;28;20037;-21
2021/12/26 04:01:30;;;;;;;83.65;45.78;;;;;;;0.52;77.41;99847.50;5066846;28;20512;-21
2021/12/26 04:03:56;;;;;;;82.57;46.88;;;;;;;0.74;76.60;99851.34;5048790;28;20032;-21
2021/12/26 04:06:21;;;;;;;81.15;45.35;;;;;;;0.79;77.02;99838.53;5067127;28;20033;-20
2021/12/26 04:08:47;;;;;;;82.78;43.92;;;;;;;0.85;75.76;99823.97;5067029;28;20115;-20
2021/12/26 04:11:12;;;;;;;81.95;43.88;;;;;;;0.72;76.16;99849.88;5066958;28;20067;-21
2021/12/26 04:13:38;;;;;;;90.53;46.25;;;;;;;0.91;75.68;99846.94;5067010;28;20408;-21
2021/12/26 04:16:03;;;;;;;84.25;44.50;;;;;;;0.19;76.85;99825.59;5066891;28;20032;-21
2021/12/26 04:18:29;;;;;;;83.07;44.10;;;;;;;0.90;75.80;99850.56;5066853;28;20024;-21
2021/12/26 04:20:54;;;;;;;90.88;46.30;;;;;;;0.63;74.01;99807.00;5069337;28;20392;-20
2021/12/26 04:23:20;;;;;;;81.90;45.65;;;;;;;0.85;74.87;99847.59;5070597;28;20032;-21
2021/12/26 04:25:46;;;;;;;95.55;49.05;;;;;;;0.51;75.86;99832.75;5070110;28;20039;-21
2021/12/26 04:28:12;;;;;;;141.02;61.25;;;;;;;0.55;75.61;99843.72;5070373;28;20036;-21
2021/12/26 04:30:37;;;;;;;138.85;61.50;;;;;;;0.01;77.44;99830.09;5070180;28;20063;-21
2021/12/26 04:33:04;;;;;;;129.02;54.38;;;;;;;-0.34;78.37;99800.41;5070746;28;20036;-21
2021/12/26 04:35:30;;;;;;;99.88;49.38;;;;;;;0.35;76.35;99844.00;5070463;28;20832;-21
2021/12/26 04:37:55;;;;;;;167.80;95.15;;;;;;;0.55;75.81;99838.47;5053148;28;20043;-21
2021/12/26 04:40:21;;;;;;;109.43;57.22;;;;;;;1.12;73.96;99843.03;5070257;28;20495;-21
2021/12/26 04:42:47;;;;;;;98.25;50.95;;;;;;;1.13;73.58;99850.75;5070444;28;20060;-22
2021/12/26 04:45:14;;;;;;;109.28;58.80;;;;;;;0.83;74.15;99843.50;5079845;28;20032;-21
2021/12/26 04:47:39;;;;;;;104.70;54.80;;;;;;;1.19;73.84;99850.09;5089827;28;20024;-21
2021/12/26 04:50:07;;;;;;;110.10;53.28;;;;;;;1.09;72.78;99838.94;5090051;28;20081;-21
2021/12/26 04:52:33;;;;;;;91.82;46.65;;;;;;;1.09;73.68;99828.44;5090469;28;20038;-21
2021/12/26 04:55:01;;;;;;;90.05;49.30;;;;;;;1.19;73.71;99854.53;5090424;28;20040;-20
2021/12/26 04:57:27;;;;;;;96.88;49.03;;;;;;;1.22;73.12;99838.44;5085656;28;20050;-21
2021/12/26 04:59:52;;;;;;;109.97;53.10;;;;;;;1.57;72.19;99855.69;5090059;28;20028;-21
2021/12/26 05:02:17;;;;;;;96.25;49.83;;;;;;;1.48;72.14;99866.38;5089956;28;20178;-21
2021/12/26 05:04:43;;;;;;;112.97;54.00;;;;;;;1.39;72.01;99855.88;5089988;28;20031;-21
2021/12/26 05:07:08;;;;;;;125.65;62.95;;;;;;;0.70;74.55;99850.03;5089993;28;20028;-21
2021/12/26 05:09:34;;;;;;;118.28;59.20;;;;;;;0.86;73.73;99848.41;5089600;28;20479;-20
2021/12/26 05:11:59;;;;;;;122.88;61.20;;;;;;;1.02;73.70;99837.13;5071620;28;20024;-21
2021/12/26 05:14:25;;;;;;;115.47;56.35;;;;;;;0.78;73.23;99831.66;5089885;28;20036;-21
2021/12/26 05:16:51;;;;;;;110.00;56.03;;;;;;;1.04;74.10;99840.41;5090150;28;20039;-21
2021/12/26 05:19:16;;;;;;;106.93;54.90;;;;;;;0.79;73.77;99842.97;5089654;28;20028;-22
2021/12/26 05:21:42;;;;;;;90.97;50.20;;;;;;;1.09;73.32;99838.94;5090270;28;20614;-20
2021/12/26 05:24:07;;;;;;;91.25;51.50;;;;;;;1.55;71.53;99844.53;5089746;28;20093;-20
2021/12/26 05:26:33;;;;;;;93.18;48.78;;;;;;;1.48;71.80;99833.03;5089543;28;20043;-20
2021/12/26 05:28:58;;;;;;;100.10;53.42;;;;;;;1.16;73.03;99834.66;5089470;28;20486;-20
2021/12/26 05:31:24;;;;;;;104.57;53.33;;;;;;;0.76;74.87;99827.56;5088227;28;20024;-22
2021/12/26 05:33:49;;;;;;;103.97;53.15;;;;;;;1.04;73.66;99809.69;5089257;28;20781;-20
2021/12/26 05:36:14;;;;;;;106.10;53.72;;;;;;;1.23;73.06;99829.59;5089804;28;20446;-20
2021/12/26 05:38:40;;;;;;;114.13;59.78;;;;;;;1.44;71.87;99831.72;5089261;28;20035;-20
2021/12/26 05:41:05;;;;;;;120.95;64.38;;;;;;;0.58;75.85;99835.56;5089139;28;20025;-21
2021/12/26 05:43:31;;;;;;;117.07;58.83;;;;;;;0.61;76.22;99843.09;5089218;28;20564;-21
2021/12/26 05:45:57;;;;;;;101.65;52.75;;;;;;;0.79;75.48;99849.03;5089090;28;20024;-21
2021/12/26 05:48:22;;;;;;;123.97;58.10;;;;;;;1.29;73.54;99860.47;5089052;28;20035;-21
2021/12/26 05:50:48;;;;;;;110.70;55.90;;;;;;;1.36;72.65;99864.06;5088863;28;20701;-21
2021/12/26 05:53:13;;;;;;;105.65;52.78;;;;;;;1.23;73.18;99852.38;5070912;28;20411;-22
2021/12/26 05:55:39;;;;;;;94.07;50.60;;;;;;;1.38;72.63;99845.50;5089046;28;20042;-21
2021/12/26 05:58:04;;;;;;;98.20;52.78;;;;;;;1.29;73.41;99859.63;5089143;28;20424;-21
2021/12/26 06:00:30;;;;;;;98.97;53.67;;;;;;;1.10;74.38;99845.00;5088784;28;20047;-20
2021/12/26 06:02:55;;;;;;;97.05;54.13;;;;;;;1.12;74.17;99841.22;5088756;28;20060;-22
2021/12/26 06:05:20;;;;;;;105.53;54.47;;;;;;;1.23;74.59;99839.25;5089024;28;20472;-21
2021/12/26 06:07:46;;;;;;;105.30;57.13;;;;;;;1.48;73.56;99845.34;5082845;28;20036;-21
2021/12/26 06:10:12;;;;;;;106.72;58.22;;;;;;;1.44;73.68;99841.41;5050561;28;20032;-21
2021/12/26 06:12:38;;;;;;;102.80;54.10;;;;;;;0.87;75.83;99847.44;5068699;28;20029;-21
2021/12/26 06:15:04;;;;;;;125.90;61.63;;;;;;;0.22;77.80;99834.94;5068419;28;20028;-21
2021/12/26 06:17:29;;;;;;;113.00;59.25;;;;;;;0.62;76.96;99852.63;5067952;28;20035;-21
2021/12/26 06:19:55;;;;;;;120.47;63.90;;;;;;;1.20;74.56;99872.75;5068336;28;20024;-21
2021/12/26 06:22:20;;;;;;;120.57;62.88;;;;;;;1.46;73.74;99861.28;5068169;28;20032;-21
2021/12/26 06:24:45;;;;;;;116.65;61.05;;;;;;;1.24;74.30;99869.81;5068075;28;20502;-21
2021/12/26 06:27:11;;;;;;;117.20;59.78;;;;;;;1.20;74.51;99854.34;5068085;28;20032;-21
2021/12/26 06:29:36;;;;;;;105.18;58.25;;;;;;;1.09;75.16;99864.38;5067842;28;20056;-21
2021/12/26 06:32:03;;;;;;;109.55;59.55;;;;;;;1.28;74.97;99879.00;5068394;28;20036;-21
2021/12/26 06:34:28;;;;;;;112.93;59.80;;;;;;;1.60;74.96;99894.78;5050374;28;20081;-21
2021/12/26 06:36:53;;;;;;;96.47;53.53;;;;;;;1.54;74.79;99890.19;5068204;28;20055;-20
2021/12/26 06:39:19;;;;;;;92.72;50.33;;;;;;;1.48;73.81;99897.91;5067986;28;20032;-20
2021/12/26 06:41:45;;;;;;;96.50;53.72;;;;;;;1.68;73.30;99896.59;5068030;28;20804;-21
2021/12/26 06:44:10;;;;;;;120.00;71.20;;;;;;;1.49;73.85;99876.72;5052793;28;20043;-20
2021/12/26 06:46:36;;;;;;;336.05;205.38;;;;;;;1.93;73.04;99894.75;5087775;28;20480;-21
2021/12/26 06:49:01;;;;;;;131.38;72.28;;;;;;;1.66;73.17;99871.47;5088010;28;20036;-21
2021/12/26 06:51:27;;;;;;;90.97;48.20;;;;;;;1.42;74.09;99901.19;5087970;28;20024;-20
2021/12/26 06:53:52;;;;;;;88.45;46.95;;;;;;;1.10;75.51;99908.84;5069701;28;20032;-21
2021/12/26 06:56:18;;;;;;;88.43;46.70;;;;;;;1.18;74.83;99893.09;5070171;28;20038;-21
2021/12/26 06:58:43;;;;;;;107.65;55.90;;;;;;;1.08;75.16;99889.81;5069809;28;20028;-21
2021/12/26 07:01:10;;;;;;;162.00;104.40;;;;;;;1.10;75.99;99887.84;5087994;28;20039;-20
2021/12/26 07:03:36;;;;;;;96.88;57.33;;;;;;;1.29;75.29;99884.09;5087704;28;20067;-20
2021/12/26 07:06:01;;;;;;;116.78;62.30;;;;;;;1.43;75.02;99898.41;5087821;28;20073;-22
2021/12/26 07:08:27;;;;;;;105.30;56.45;;;;;;;1.52;74.16;99902.66;5088260;28;20140;-21
2021/12/26 07:10:52;;;;;;;100.18;53.58;;;;;;;1.47;75.31;99889.22;5087861;28;20040;-21
2021/12/26 07:13:18;;;;;;;101.47;55.90;;;;;;;1.59;74.91;99872.13;5069852;28;20024;-21
2021/12/26 07:15:43;;;;;;;103.43;53.75;;;;;;;1.66;74.98;99887.22;5069572;28;20035;-21
2021/12/26 07:18:09;;;;;;;113.55;59.67;;;;;;;1.77;74.76;99886.88;5087721;28;20039;-21
2021/12/26 07:20:34;;;;;;;96.53;53.28;;;;;;;1.83;74.50;99906.44;5087640;28;20434;-21
2021/12/26 07:23:00;;;;;;;108.68;60.58;;;;;;;1.32;76.96;99891.66;5069403;28;20032;-21
2021/12/26 07:25:25;;;;;;;101.97;57.40;;;;;;;1.68;75.61;99885.25;5087335;28;20035;-22
2021/12/26 07:27:51;;;;;;;95.35;53.95;;;;;;;1.46;76.19;99894.63;5069303;28;20044;-21
2021/12/26 07:30:16;;;;;;;220.48;105.10;;;;;;;1.95;76.15;99898.03;5068940;28;20056;-21
2021/12/26 07:32:42;;;;;;;111.63;60.13;;;;;;;2.12;73.95;99895.38;5087567;28;20032;-21
2021/12/26 07:35:07;;;;;;;98.40;53.25;;;;;;;2.18;73.88;99913.91;5087748;28;20044;-21
2021/12/26 07:37:33;;;;;;;91.25;50.40;;;;;;;2.48;73.11;99910.75;5087130;28;20028;-21
2021/12/26 07:39:58;;;;;;;89.82;48.72;;;;;;;1.98;74.73;99908.22;5087575;28;20089;-22
2021/12/26 07:42:24;;;;;;;85.25;48.97;;;;;;;1.90;73.96;99884.56;5087587;28;20097;-21
2021/12/26 07:44:49;;;;;;;110.13;66.40;;;;;;;2.26;74.14;99902.56;5087231;28;20047;-21
2021/12/26 07:47:15;;;;;;;97.55;60.13;;;;;;;2.33;72.99;99893.03;5087544;28;20036;-21
2021/12/26 07:49:40;;;;;;;92.80;53.70;;;;;;;2.00;75.45;99906.25;5068876;28;20028;-20
2021/12/26 07:52:11;;;;;;;87.78;47.92;;;;;;;2.25;74.09;99913.25;5087346;28;20043;-20
2021/12/26 07:54:37;;;;;;;97.78;56.53;;;;;;;2.01;75.53;99896.56;5087826;28;20032;-21
2021/12/26 07:57:06;;;;;;;89.93;48.95;;;;;;;2.58;73.62;99903.47;5056531;28;20039;-20
2021/12/26 07:59:31;;;;;;;84.47;47.88;;;;;;;2.54;73.29;99881.09;5090855;28;20051;-21
2021/12/26 08:01:56;;;;;;;90.60;48.63;;;;;;;2.78;72.63;99896.78;5091496;28;20032;-21
2021/12/26 08:04:22;;;;;;;89.82;50.45;;;;;;;2.94;72.17;99908.22;5091261;28;20055;-21
2021/12/26 08:06:47;;;;;;;88.35;48.00;;;;;;;2.91;72.36;99884.88;5091477;28;20038;-21
2021/12/26 08:09:13;;;;;;;92.47;50.95;;;;;;;3.12;71.54;99890.31;5091054;28;20085;-21
2021/12/26 08:11:38;;;;;;;93.18;49.40;;;;;;;2.91;72.58;99903.31;5090897;28;20032;-21
2021/12/26 08:14:05;;;;;;;116.45;63.53;;;;;;;3.01;73.26;99915.25;5072507;28;20484;-21
2021/12/26 08:16:31;;;;;;;93.90;52.28;;;;;;;2.84;72.60;99892.66;5057408;28;20079;-20
2021/12/26 08:18:57;;;;;;;109.90;58.20;;;;;;;3.36;71.67;99912.25;5052597;28;20048;-21
2021/12/26 08:21:22;;;;;;;110.47;60.45;;;;;;;3.04;72.62;99914.06;5070571;28;20071;-21
2021/12/26 08:23:47;;;;;;;80.80;47.50;;;;;;;3.08;72.63;99904.03;5081375;28;20234;-21
2021/12/26 08:26:13;;;;;;;90.07;52.58;;;;;;;3.59;71.60;99913.03;5090445;28;20043;-22
2021/12/26 08:28:39;;;;;;;83.05;48.80;;;;;;;3.38;72.01;99892.63;5090197;28;20047;-21
2021/12/26 08:31:04;;;;;;;86.88;49.53;;;;;;;3.48;72.82;99908.19;5090613;28;20196;-21
2021/12/26 08:33:30;;;;;;;84.97;49.97;;;;;;;3.65;72.05;99923.91;5072306;28;20028;-20
2021/12/26 08:35:56;;;;;;;188.75;120.07;;;;;;;3.37;72.51;99913.88;5072171;28;20036;-21
2021/12/26 08:38:21;;;;;;;125.22;72.28;;;;;;;3.20;74.31;99916.63;5090674;28;20020;-21
2021/12/26 08:40:51;;;;;;;164.27;92.30;;;;;;;3.17;74.52;99898.53;5072206;28;20483;-21
2021/12/26 08:43:16;;;;;;;93.80;53.55;;;;;;;3.49;73.62;99912.47;5090071;28;20052;-20
2021/12/26 08:45:42;;;;;;;236.52;122.38;;;;;;;3.47;73.93;99914.47;5090284;28;20780;-21
2021/12/26 08:48:07;;;;;;;100.25;56.40;;;;;;;3.46;73.78;99910.19;5090333;28;20043;-21
2021/12/26 08:50:33;;;;;;;96.07;58.80;;;;;;;3.69;73.43;99917.28;5089964;28;20048;-21
2021/12/26 08:52:58;;;;;;;104.45;62.75;;;;;;;3.83;72.42;99898.03;5090479;28;20111;-21
2021/12/26 08:55:24;;;;;;;99.30;58.25;;;;;;;3.60;73.53;99904.16;5089865;28;20035;-21
2021/12/26 08:57:52;;;;;;;97.07;57.97;;;;;;;3.93;73.04;99903.03;5089791;28;20059;-21
2021/12/26 09:00:18;;;;;;;96.50;55.33;;;;;;;4.03;72.63;99899.16;5072530;28;20040;-20
2021/12/26 09:02:43;;;;;;;101.13;58.22;;;;;;;4.08;73.15;99910.97;5080284;28;20111;-22
2021/12/26 09:05:10;;;;;;;95.45;55.40;;;;;;;3.98;72.36;99895.41;5062790;28;20023;-21
2021/12/26 09:07:35;;;;;;;88.75;52.88;;;;;;;4.32;71.26;99908.09;5079739;28;20517;-21
2021/12/26 09:10:01;;;;;;;93.22;55.30;;;;;;;4.20;71.64;99897.16;5078064;28;20597;-20
2021/12/26 09:12:27;;;;;;;102.28;60.03;;;;;;;4.38;72.48;99882.78;5078335;28;20027;-22
2021/12/26 09:14:52;;;;;;;95.07;57.53;;;;;;;4.50;71.57;99889.25;5079361;28;20037;-22
2021/12/26 09:17:18;;;;;;;115.35;63.25;;;;;;;4.50;71.50;99888.44;5077590;28;20024;-22
2021/12/26 09:19:43;;;;;;;110.60;65.10;;;;;;;4.54;73.08;99879.94;5078895;28;20089;-21
2021/12/26 09:22:10;;;;;;;92.82;54.75;;;;;;;4.65;71.17;99891.03;5076821;28;20025;-21
2021/12/26 09:24:35;;;;;;;93.88;55.10;;;;;;;4.25;71.76;99878.16;5069824;28;20052;-21
2021/12/26 09:27:02;;;;;;;86.25;53.92;;;;;;;4.34;70.96;99873.59;5069247;28;20558;-20
2021/12/26 09:29:27;;;;;;;89.97;56.42;;;;;;;3.94;72.72;99880.94;5050373;28;20045;-21
2021/12/26 09:31:53;;;;;;;95.20;56.92;;;;;;;3.70;73.74;99866.16;5069499;28;20173;-21
2021/12/26 09:34:19;;;;;;;91.10;53.90;;;;;;;4.07;73.45;99877.69;5069278;28;20037;-20
2021/12/26 09:36:45;;;;;;;87.22;54.08;;;;;;;4.55;71.62;99881.56;5069289;28;20422;-21
2021/12/26 09:39:10;;;;;;;111.65;67.45;;;;;;;4.69;71.27;99868.53;5069237;28;20404;-21
2021/12/26 09:41:37;;;;;;;86.72;53.15;;;;;;;4.74;70.69;99890.75;5050811;28;20064;-21
2021/12/26 09:44:02;;;;;;;89.70;55.70;;;;;;;4.42;72.00;99865.56;5069149;28;20472;-21
2021/12/26 09:46:30;;;;;;;90.13;53.50;;;;;;;4.52;71.06;99852.09;5068910;28;20025;-22
2021/12/26 09:48:55;;;;;;;84.90;51.90;;;;;;;4.37;72.35;99860.84;5068922;28;20036;-21
2021/12/26 09:51:21;;;;;;;90.60;57.13;;;;;;;4.69;72.05;99853.50;5051112;28;20039;-20
2021/12/26 09:53:46;;;;;;;83.90;50.83;;;;;;;5.12;70.20;99856.19;5068603;28;20040;-21
2021/12/26 09:56:12;;;;;;;92.20;54.28;;;;;;;5.28;69.48;99855.13;5074121;28;20085;-22
2021/12/26 09:59:17;;;;;;;80.10;48.53;;;;;;;5.30;69.03;99868.97;5077768;28;20024;-22
2021/12/26 10:01:44;;;;;;;76.57;48.65;;;;;;;5.54;69.08;99856.38;5045274;28;20097;-20
2021/12/26 10:04:18;;;;;;;91.33;53.47;;;;;;;5.80;67.52;99858.38;5076754;28;20036;-21
2021/12/26 10:06:43;;;;;;;86.00;51.38;;;;;;;6.00;67.65;99869.16;5077071;28;20486;-21
2021/12/26 10:09:09;;;;;;;83.50;49.08;;;;;;;5.60;67.97;99843.19;5060312;28;20020;-20
2021/12/26 10:11:36;;;;;;;82.57;49.55;;;;;;;5.32;68.88;99835.22;5076569;28;20032;-21
2021/12/26 10:14:15;;;;;;;80.97;48.53;;;;;;;5.02;70.67;99859.13;5076925;28;20161;-21
2021/12/26 10:16:45;;;;;;;81.05;47.90;;;;;;;5.09;70.09;99846.00;5077507;28;20033;-21
2021/12/26 10:19:12;;;;;;;82.25;50.53;;;;;;;5.50;69.60;99858.59;5057570;28;20514;-21
2021/12/26 10:21:43;;;;;;;75.20;48.58;;;;;;;5.66;69.14;99869.88;5074089;28;20040;-20
2021/12/26 10:24:26;;;;;;;83.53;51.28;;;;;;;5.66;68.59;99862.78;5072052;28;20117;-20
2021/12/26 10:27:00;;;;;;;81.43;49.30;;;;;;;5.41;70.12;99855.25;5088068;28;20043;-20
2021/12/26 10:29:44;;;;;;;80.03;49.72;;;;;;;5.57;69.17;99859.44;5086170;28;20121;-23
2021/12/26 10:32:18;;;;;;;83.07;53.20;;;;;;;5.60;69.45;99851.13;5069982;28;20164;-21
2021/12/26 10:34:53;;;;;;;135.80;83.93;;;;;;;5.50;69.60;99850.66;5086552;28;20415;-21
2021/12/26 10:37:30;;;;;;;95.72;59.25;;;;;;;5.53;69.69;99842.31;5086321;28;20677;-21
2021/12/26 10:39:58;;;;;;;105.10;66.35;;;;;;;5.43;70.62;99839.19;5079502;28;20106;-22
2021/12/26 10:42:25;;;;;;;103.18;59.92;;;;;;;5.60;69.61;99832.63;5087947;28;20036;-21
2021/12/26 10:44:52;;;;;;;106.90;67.47;;;;;;;5.60;70.28;99842.38;5076815;28;20039;-20
2021/12/26 10:47:20;;;;;;;97.78;61.08;;;;;;;5.91;69.42;99835.88;5067693;28;20404;-21
2021/12/26 10:49:58;;;;;;;103.57;62.30;;;;;;;6.04;69.07;99844.72;5082257;28;20039;-21
2021/12/26 10:52:32;;;;;;;109.78;65.88;;;;;;;6.00;68.41;99838.19;5087731;28;20274;-20
2021/12/26 10:54:59;;;;;;;105.57;60.35;;;;;;;5.54;71.15;99848.44;5087900;28;20028;-22
2021/12/26 10:57:30;;;;;;;89.77;55.10;;;;;;;5.07;72.42;99821.59;5087147;28;20032;-23
2021/12/26 11:00:07;;;;;;;127.22;66.55;;;;;;;5.07;73.94;99855.09;5081670;28;20274;-20
2021/12/26 11:02:34;;;;;;;132.27;70.07;;;;;;;4.95;73.72;99860.91;5085660;28;20074;-21
2021/12/26 11:05:03;;;;;;;103.03;57.20;;;;;;;4.80;74.74;99831.91;5087947;28;20147;-20
2021/12/26 11:07:30;;;;;;;98.72;59.35;;;;;;;5.29;73.42;99840.91;5087705;28;20024;-21
2021/12/26 11:10:05;;;;;;;97.57;57.80;;;;;;;5.55;71.97;99845.59;5086544;28;20059;-21
2021/12/26 11:12:40;;;;;;;104.38;59.55;;;;;;;5.87;71.35;99830.16;5077988;28;20056;-21
2021/12/26 11:15:06;;;;;;;100.78;60.38;;;;;;;5.97;69.74;99827.19;5078439;28;20119;-21
2021/12/26 11:17:34;;;;;;;100.60;59.45;;;;;;;5.50;71.74;99810.97;5065675;28;20118;-21
2021/12/26 11:19:59;;;;;;;111.15;61.55;;;;;;;5.93;71.08;99823.28;5066860;28;20044;-20
2021/12/26 11:22:25;;;;;;;121.30;63.53;;;;;;;6.12;70.80;99819.94;5076028;28;20059;-21
2021/12/26 11:24:53;;;;;;;109.10;62.88;;;;;;;5.69;72.34;99829.84;5076645;28;20036;-21